sensor_id;sensor_type;location;lat;lon;timestamp;pressure;altitude;pressure_sealevel;temperature;humidity
19108;BME280;9686;48.832;9.126;2023-07-31T00:01:18;57734.34;;;-143.88;100.00
19108;BME280;9686;48.832;9.126;2023-07-31T00:03:43;57734.34;;;-143.88;100.00
19108;BME280;9686;48.832;9.126;2023-07-31T00:06:09;57734.34;;;-143.88;100.00
19108;BME280;9686;48.832;9.126;2023-07-31T00:08:34;57734.34;;;-143.88;100.00
19108;BME280;9686;48.832;9.126;2023-07-31T00:10:59;57734.34;;;-143.88;100.00
19108;BME280;9686;48.832;9.126;2023-07-31T00:13:24;57734.34;;;-143.88;100.00
19108;BME280;9686;48.832;9.126;2023-07-31T00:15:50;57734.34;;;-143.88;100.00
19108;BME280;9686;48.832;9.126;2023-07-31T00:18:15;98224.53;;;18.22;nan
19108;BME280;9686;48.832;9.126;2023-07-31T00:20:41;98230.44;;;18.03;nan
19108;BME280;9686;48.832;9.126;2023-07-31T00:23:06;98229.91;;;17.94;nan
19108;BME280;9686;48.832;9.126;2023-07-31T00:25:31;98231.63;;;17.95;nan
19108;BME280;9686;48.832;9.126;2023-07-31T00:27:57;98231.13;;;18.08;nan
19108;BME280;9686;48.832;9.126;2023-07-31T00:30:22;98230.28;;;18.08;nan
19108;BME280;9686;48.832;9.126;2023-07-31T00:32:47;98224.53;;;18.22;nan
19108;BME280;9686;48.832;9.126;2023-07-31T00:35:13;98226.25;;;18.21;nan
19108;BME280;9686;48.832;9.126;2023-07-31T00:37:38;98231.13;;;18.08;nan
19108;BME280;9686;48.832;9.126;2023-07-31T00:40:04;98234.16;;;17.98;nan
19108;BME280;9686;48.832;9.126;2023-07-31T00:42:29;98237.56;;;18.01;nan
19108;BME280;9686;48.832;9.126;2023-07-31T00:44:54;98234.06;;;18.01;nan
19108;BME280;9686;48.832;9.126;2023-07-31T00:47:20;98236.94;;;17.93;nan
19108;BME280;9686;48.832;9.126;2023-07-31T00:49:45;98235.84;;;17.75;nan
19108;BME280;9686;48.832;9.126;2023-07-31T00:52:11;98227.31;;;17.66;nan
19108;BME280;9686;48.832;9.126;2023-07-31T00:54:36;98227.22;;;17.70;nan
19108;BME280;9686;48.832;9.126;2023-07-31T00:57:02;98231.31;;;17.79;nan
19108;BME280;9686;48.832;9.126;2023-07-31T00:59:27;98230.34;;;17.55;nan
19108;BME280;9686;48.832;9.126;2023-07-31T01:01:53;98227.16;;;17.72;nan
19108;BME280;9686;48.832;9.126;2023-07-31T01:04:18;98230.44;;;17.52;nan
19108;BME280;9686;48.832;9.126;2023-07-31T01:09:26;98233.34;;;17.43;nan
19108;BME280;9686;48.832;9.126;2023-07-31T01:12:01;98225.44;;;17.44;nan
19108;BME280;9686;48.832;9.126;2023-07-31T01:14:27;98224.19;;;17.28;nan
19108;BME280;9686;48.832;9.126;2023-07-31T01:16:52;98216.34;;;17.26;nan
19108;BME280;9686;48.832;9.126;2023-07-31T01:19:22;98217.31;;;17.24;nan
19108;BME280;9686;48.832;9.126;2023-07-31T01:22:17;98226.09;;;16.97;nan
19108;BME280;9686;48.832;9.126;2023-07-31T01:25:07;98221.09;;;17.42;nan
19108;BME280;9686;48.832;9.126;2023-07-31T01:27:45;98213.00;;;17.48;nan
19108;BME280;9686;48.832;9.126;2023-07-31T01:30:16;98209.03;;;17.35;nan
19108;BME280;9686;48.832;9.126;2023-07-31T01:32:47;98204.38;;;17.16;nan
19108;BME280;9686;48.832;9.126;2023-07-31T01:35:13;98207.06;;;17.15;nan
19108;BME280;9686;48.832;9.126;2023-07-31T01:37:38;98202.97;;;17.06;nan
19108;BME280;9686;48.832;9.126;2023-07-31T01:40:04;98198.91;;;16.96;nan
19108;BME280;9686;48.832;9.126;2023-07-31T01:42:30;98207.53;;;17.01;nan
19108;BME280;9686;48.832;9.126;2023-07-31T01:44:55;98199.56;;;17.03;nan
19108;BME280;9686;48.832;9.126;2023-07-31T01:47:20;98194.16;;;17.07;nan
19108;BME280;9686;48.832;9.126;2023-07-31T01:49:46;98192.72;;;16.97;nan
19108;BME280;9686;48.832;9.126;2023-07-31T01:52:11;98188.97;;;17.04;nan
19108;BME280;9686;48.832;9.126;2023-07-31T01:54:36;98189.91;;;17.03;nan
19108;BME280;9686;48.832;9.126;2023-07-31T01:57:02;98189.19;;;16.98;nan
19108;BME280;9686;48.832;9.126;2023-07-31T01:59:27;98178.34;;;17.34;nan
19108;BME280;9686;48.832;9.126;2023-07-31T02:01:54;98169.06;;;17.48;nan
19108;BME280;9686;48.832;9.126;2023-07-31T02:04:19;98176.28;;;17.42;nan
19108;BME280;9686;48.832;9.126;2023-07-31T02:06:44;98169.41;;;17.38;nan
19108;BME280;9686;48.832;9.126;2023-07-31T02:09:09;98166.25;;;17.28;nan
19108;BME280;9686;48.832;9.126;2023-07-31T02:11:35;98167.97;;;17.29;nan
19108;BME280;9686;48.832;9.126;2023-07-31T02:14:00;98163.28;;;17.37;nan
19108;BME280;9686;48.832;9.126;2023-07-31T02:16:25;98158.88;;;17.63;nan
19108;BME280;9686;48.832;9.126;2023-07-31T02:18:51;98156.34;;;17.60;nan
19108;BME280;9686;48.832;9.126;2023-07-31T02:21:16;98142.00;;;17.70;nan
19108;BME280;9686;48.832;9.126;2023-07-31T02:23:41;98138.66;;;17.63;nan
19108;BME280;9686;48.832;9.126;2023-07-31T02:26:06;98143.69;;;17.46;nan
19108;BME280;9686;48.832;9.126;2023-07-31T02:28:32;98147.47;;;17.62;nan
19108;BME280;9686;48.832;9.126;2023-07-31T02:30:57;98142.31;;;17.59;nan
19108;BME280;9686;48.832;9.126;2023-07-31T02:33:22;98139.84;;;17.54;nan
19108;BME280;9686;48.832;9.126;2023-07-31T02:35:48;98140.25;;;17.42;nan
19108;BME280;9686;48.832;9.126;2023-07-31T02:38:13;98135.16;;;17.38;nan
19108;BME280;9686;48.832;9.126;2023-07-31T02:40:41;98136.06;;;17.37;nan
19108;BME280;9686;48.832;9.126;2023-07-31T02:43:07;98131.41;;;17.45;nan
19108;BME280;9686;48.832;9.126;2023-07-31T02:45:33;98135.16;;;17.38;nan
19108;BME280;9686;48.832;9.126;2023-07-31T02:47:58;98137.03;;;17.34;nan
19108;BME280;9686;48.832;9.126;2023-07-31T02:50:23;98129.53;;;17.48;nan
19108;BME280;9686;48.832;9.126;2023-07-31T02:52:48;98121.81;;;17.42;nan
19108;BME280;9686;48.832;9.126;2023-07-31T02:55:14;98121.34;;;17.56;nan
19108;BME280;9686;48.832;9.126;2023-07-31T02:57:39;98117.91;;;17.54;nan
19108;BME280;9686;48.832;9.126;2023-07-31T03:00:05;98120.47;;;17.55;nan
19108;BME280;9686;48.832;9.126;2023-07-31T03:02:31;98115.03;;;17.60;nan
19108;BME280;9686;48.832;9.126;2023-07-31T03:04:57;98126.91;;;17.48;nan
19108;BME280;9686;48.832;9.126;2023-07-31T03:07:22;98129.59;;;17.47;nan
19108;BME280;9686;48.832;9.126;2023-07-31T03:09:47;98126.88;;;17.23;nan
19108;BME280;9686;48.832;9.126;2023-07-31T03:12:13;98126.78;;;17.26;nan
19108;BME280;9686;48.832;9.126;2023-07-31T03:14:38;98128.66;;;17.23;nan
19108;BME280;9686;48.832;9.126;2023-07-31T03:17:03;98133.38;;;17.38;nan
19108;BME280;9686;48.832;9.126;2023-07-31T03:19:31;98124.88;;;17.30;nan
19108;BME280;9686;48.832;9.126;2023-07-31T03:21:56;98119.72;;;17.27;nan
19108;BME280;9686;48.832;9.126;2023-07-31T03:24:22;98125.47;;;17.38;nan
19108;BME280;9686;48.832;9.126;2023-07-31T03:26:47;98129.78;;;17.41;nan
19108;BME280;9686;48.832;9.126;2023-07-31T03:29:12;98133.84;;;17.51;nan
19108;BME280;9686;48.832;9.126;2023-07-31T03:31:38;98132.56;;;17.36;nan
19108;BME280;9686;48.832;9.126;2023-07-31T03:34:03;98135.81;;;17.44;nan
19108;BME280;9686;48.832;9.126;2023-07-31T03:36:28;98130.38;;;17.49;nan
19108;BME280;9686;48.832;9.126;2023-07-31T03:38:54;98130.44;;;17.22;nan
19108;BME280;9686;48.832;9.126;2023-07-31T03:41:19;98133.28;;;17.15;nan
19108;BME280;9686;48.832;9.126;2023-07-31T03:43:50;98129.00;;;17.12;nan
19108;BME280;9686;48.832;9.126;2023-07-31T03:46:21;98136.72;;;17.18;nan
19108;BME280;9686;48.832;9.126;2023-07-31T03:48:46;98136.09;;;17.10;nan
19108;BME280;9686;48.832;9.126;2023-07-31T03:51:12;98132.31;;;17.19;nan
19108;BME280;9686;48.832;9.126;2023-07-31T03:53:37;98134.38;;;17.09;nan
19108;BME280;9686;48.832;9.126;2023-07-31T03:56:02;98142.13;;;17.14;nan
19108;BME280;9686;48.832;9.126;2023-07-31T03:58:28;98133.16;;;17.19;nan
19108;BME280;9686;48.832;9.126;2023-07-31T04:00:53;98135.59;;;17.25;nan
19108;BME280;9686;48.832;9.126;2023-07-31T04:03:19;98131.94;;;17.30;nan
19108;BME280;9686;48.832;9.126;2023-07-31T04:05:44;98127.69;;;17.25;nan
19108;BME280;9686;48.832;9.126;2023-07-31T04:08:10;98131.50;;;17.42;nan
19108;BME280;9686;48.832;9.126;2023-07-31T04:10:35;98128.72;;;17.46;nan
19108;BME280;9686;48.832;9.126;2023-07-31T04:13:00;98128.91;;;17.40;nan
19108;BME280;9686;48.832;9.126;2023-07-31T04:15:26;98134.75;;;17.50;nan
19108;BME280;9686;48.832;9.126;2023-07-31T04:17:51;98133.06;;;17.74;nan
19108;BME280;9686;48.832;9.126;2023-07-31T04:20:16;98122.56;;;17.72;nan
19108;BME280;9686;48.832;9.126;2023-07-31T04:22:42;98131.34;;;17.73;nan
19108;BME280;9686;48.832;9.126;2023-07-31T04:25:07;98123.03;;;17.83;nan
19108;BME280;9686;48.832;9.126;2023-07-31T04:27:33;98122.72;;;17.91;nan
19108;BME280;9686;48.832;9.126;2023-07-31T04:29:58;98120.09;;;17.91;nan
19108;BME280;9686;48.832;9.126;2023-07-31T04:32:23;98114.56;;;17.99;nan
19108;BME280;9686;48.832;9.126;2023-07-31T04:34:48;98119.53;;;18.06;nan
19108;BME280;9686;48.832;9.126;2023-07-31T04:37:14;98112.47;;;18.07;nan
19108;BME280;9686;48.832;9.126;2023-07-31T04:39:39;98114.06;;;18.11;nan
19108;BME280;9686;48.832;9.126;2023-07-31T04:42:04;98118.06;;;18.21;nan
19108;BME280;9686;48.832;9.126;2023-07-31T04:44:30;98120.63;;;18.24;nan
19108;BME280;9686;48.832;9.126;2023-07-31T04:46:55;98103.81;;;18.27;nan
19108;BME280;9686;48.832;9.126;2023-07-31T04:49:20;98099.56;;;18.44;nan
19108;BME280;9686;48.832;9.126;2023-07-31T04:51:46;98097.09;;;18.63;nan
19108;BME280;9686;48.832;9.126;2023-07-31T04:54:11;98092.56;;;18.67;nan
19108;BME280;9686;48.832;9.126;2023-07-31T04:56:39;98095.88;;;18.72;nan
19108;BME280;9686;48.832;9.126;2023-07-31T04:59:05;98092.75;;;18.84;nan
19108;BME280;9686;48.832;9.126;2023-07-31T05:01:30;98093.53;;;18.86;nan
19108;BME280;9686;48.832;9.126;2023-07-31T05:03:55;98090.50;;;18.95;nan
19108;BME280;9686;48.832;9.126;2023-07-31T05:06:21;98084.13;;;19.01;nan
19108;BME280;9686;48.832;9.126;2023-07-31T05:08:46;98090.38;;;18.98;nan
19108;BME280;9686;48.832;9.126;2023-07-31T05:11:12;98083.25;;;19.00;nan
19108;BME280;9686;48.832;9.126;2023-07-31T05:13:37;98076.78;;;19.07;nan
19108;BME280;9686;48.832;9.126;2023-07-31T05:16:03;98076.13;;;19.02;nan
19108;BME280;9686;48.832;9.126;2023-07-31T05:18:28;98065.09;;;19.13;nan
19108;BME280;9686;48.832;9.126;2023-07-31T05:20:53;98079.31;;;19.10;nan
19108;BME280;9686;48.832;9.126;2023-07-31T05:23:19;98078.31;;;19.13;nan
19108;BME280;9686;48.832;9.126;2023-07-31T05:25:44;98082.66;;;19.14;nan
19108;BME280;9686;48.832;9.126;2023-07-31T05:28:09;98087.34;;;19.07;nan
19108;BME280;9686;48.832;9.126;2023-07-31T05:30:34;98084.91;;;19.23;nan
19108;BME280;9686;48.832;9.126;2023-07-31T05:33:00;98082.06;;;19.48;nan
19108;BME280;9686;48.832;9.126;2023-07-31T05:35:25;98082.00;;;19.50;nan
19108;BME280;9686;48.832;9.126;2023-07-31T05:37:50;98075.78;;;19.71;nan
19108;BME280;9686;48.832;9.126;2023-07-31T05:40:16;98079.06;;;19.76;nan
19108;BME280;9686;48.832;9.126;2023-07-31T05:42:41;98081.31;;;19.85;nan
19108;BME280;9686;48.832;9.126;2023-07-31T05:45:07;98077.25;;;19.78;nan
19108;BME280;9686;48.832;9.126;2023-07-31T05:47:33;98085.47;;;19.91;nan
19108;BME280;9686;48.832;9.126;2023-07-31T05:49:58;98066.25;;;19.87;nan
19108;BME280;9686;48.832;9.126;2023-07-31T05:52:23;98072.16;;;19.92;nan
19108;BME280;9686;48.832;9.126;2023-07-31T05:54:49;98066.66;;;19.97;nan
19108;BME280;9686;48.832;9.126;2023-07-31T05:57:14;98071.47;;;19.89;nan
19108;BME280;9686;48.832;9.126;2023-07-31T05:59:39;98074.91;;;19.91;nan
19108;BME280;9686;48.832;9.126;2023-07-31T06:02:05;98076.38;;;19.96;nan
19108;BME280;9686;48.832;9.126;2023-07-31T06:04:31;98064.53;;;20.05;nan
19108;BME280;9686;48.832;9.126;2023-07-31T06:06:56;98073.31;;;19.87;nan
19108;BME280;9686;48.832;9.126;2023-07-31T06:09:21;98081.69;;;19.96;nan
19108;BME280;9686;48.832;9.126;2023-07-31T06:11:47;98073.53;;;20.01;nan
19108;BME280;9686;48.832;9.126;2023-07-31T06:14:12;98082.22;;;20.05;nan
19108;BME280;9686;48.832;9.126;2023-07-31T06:16:37;98074.63;;;20.16;nan
19108;BME280;9686;48.832;9.126;2023-07-31T06:19:03;98065.59;;;20.20;nan
19108;BME280;9686;48.832;9.126;2023-07-31T06:21:28;98066.81;;;20.31;nan
19108;BME280;9686;48.832;9.126;2023-07-31T06:23:54;98070.47;;;20.48;nan
19108;BME280;9686;48.832;9.126;2023-07-31T06:26:20;98075.84;;;20.46;nan
19108;BME280;9686;48.832;9.126;2023-07-31T06:28:45;98084.94;;;20.59;nan
19108;BME280;9686;48.832;9.126;2023-07-31T06:31:10;98067.78;;;20.67;nan
19108;BME280;9686;48.832;9.126;2023-07-31T06:33:36;98074.50;;;20.74;nan
19108;BME280;9686;48.832;9.126;2023-07-31T06:36:01;98063.44;;;20.66;nan
19108;BME280;9686;48.832;9.126;2023-07-31T06:38:26;98070.13;;;20.73;nan
19108;BME280;9686;48.832;9.126;2023-07-31T06:40:52;98076.38;;;20.72;nan
19108;BME280;9686;48.832;9.126;2023-07-31T06:43:17;98076.28;;;20.73;nan
19108;BME280;9686;48.832;9.126;2023-07-31T06:45:43;98082.19;;;20.61;nan
19108;BME280;9686;48.832;9.126;2023-07-31T06:48:08;98083.31;;;20.74;nan
19108;BME280;9686;48.832;9.126;2023-07-31T06:50:33;98077.47;;;21.38;nan
19108;BME280;9686;48.832;9.126;2023-07-31T06:52:59;98071.59;;;21.49;nan
19108;BME280;9686;48.832;9.126;2023-07-31T06:55:25;98080.63;;;21.62;nan
19108;BME280;9686;48.832;9.126;2023-07-31T06:57:53;98082.44;;;21.62;nan
19108;BME280;9686;48.832;9.126;2023-07-31T07:00:20;98079.91;;;21.59;nan
19108;BME280;9686;48.832;9.126;2023-07-31T07:02:46;98081.88;;;21.55;nan
19108;BME280;9686;48.832;9.126;2023-07-31T07:05:15;98080.41;;;21.49;nan
19108;BME280;9686;48.832;9.126;2023-07-31T07:07:41;98076.72;;;21.52;nan
19108;BME280;9686;48.832;9.126;2023-07-31T07:10:06;98075.94;;;21.67;nan
19108;BME280;9686;48.832;9.126;2023-07-31T07:12:33;98075.97;;;21.83;nan
19108;BME280;9686;48.832;9.126;2023-07-31T07:14:59;98081.59;;;22.10;nan
19108;BME280;9686;48.832;9.126;2023-07-31T07:17:25;98070.16;;;22.25;nan
19108;BME280;9686;48.832;9.126;2023-07-31T07:19:51;98072.56;;;22.30;nan
19108;BME280;9686;48.832;9.126;2023-07-31T07:22:16;98059.97;;;22.18;nan
19108;BME280;9686;48.832;9.126;2023-07-31T07:24:41;98059.09;;;22.17;nan
19108;BME280;9686;48.832;9.126;2023-07-31T07:27:07;98052.00;;;22.18;nan
19108;BME280;9686;48.832;9.126;2023-07-31T07:29:33;98052.75;;;22.35;nan
19108;BME280;9686;48.832;9.126;2023-07-31T07:31:59;98046.84;;;22.30;nan
19108;BME280;9686;48.832;9.126;2023-07-31T07:34:26;98049.25;;;22.35;nan
19108;BME280;9686;48.832;9.126;2023-07-31T07:36:52;98052.16;;;22.14;nan
19108;BME280;9686;48.832;9.126;2023-07-31T07:39:17;98054.03;;;22.28;nan
19108;BME280;9686;48.832;9.126;2023-07-31T07:41:42;98052.25;;;22.29;nan
19108;BME280;9686;48.832;9.126;2023-07-31T07:44:08;98043.94;;;22.35;nan
19108;BME280;9686;48.832;9.126;2023-07-31T07:46:33;98046.41;;;22.54;nan
19108;BME280;9686;48.832;9.126;2023-07-31T07:48:58;98047.13;;;22.41;nan
19108;BME280;9686;48.832;9.126;2023-07-31T07:51:24;98045.22;;;22.43;nan
19108;BME280;9686;48.832;9.126;2023-07-31T07:53:49;98047.53;;;22.50;nan
19108;BME280;9686;48.832;9.126;2023-07-31T07:56:14;98040.16;;;22.55;nan
19108;BME280;9686;48.832;9.126;2023-07-31T07:58:40;98043.75;;;22.54;nan
19108;BME280;9686;48.832;9.126;2023-07-31T08:01:05;98045.09;;;22.61;nan
19108;BME280;9686;48.832;9.126;2023-07-31T08:03:30;98045.09;;;22.92;nan
19108;BME280;9686;48.832;9.126;2023-07-31T08:05:59;98042.66;;;23.03;nan
19108;BME280;9686;48.832;9.126;2023-07-31T08:08:25;98041.50;;;22.93;nan
19108;BME280;9686;48.832;9.126;2023-07-31T08:10:50;98043.63;;;22.87;nan
19108;BME280;9686;48.832;9.126;2023-07-31T08:13:15;98039.94;;;22.89;nan
19108;BME280;9686;48.832;9.126;2023-07-31T08:15:41;98038.56;;;22.98;nan
19108;BME280;9686;48.832;9.126;2023-07-31T08:18:07;98032.03;;;23.03;nan
19108;BME280;9686;48.832;9.126;2023-07-31T08:20:33;98031.63;;;22.95;nan
19108;BME280;9686;48.832;9.126;2023-07-31T08:22:58;98029.75;;;23.12;nan
19108;BME280;9686;48.832;9.126;2023-07-31T08:25:23;98027.91;;;23.28;nan
19108;BME280;9686;48.832;9.126;2023-07-31T08:27:49;98030.28;;;23.32;nan
19108;BME280;9686;48.832;9.126;2023-07-31T08:30:14;98025.72;;;23.34;nan
19108;BME280;9686;48.832;9.126;2023-07-31T08:32:39;98027.91;;;23.28;nan
19108;BME280;9686;48.832;9.126;2023-07-31T08:35:05;98021.69;;;23.13;nan
19108;BME280;9686;48.832;9.126;2023-07-31T08:37:30;98018.81;;;23.46;nan
19108;BME280;9686;48.832;9.126;2023-07-31T08:39:55;98020.50;;;23.47;nan
19108;BME280;9686;48.832;9.126;2023-07-31T08:42:21;98025.44;;;23.53;nan
19108;BME280;9686;48.832;9.126;2023-07-31T08:44:46;98017.44;;;23.25;nan
19108;BME280;9686;48.832;9.126;2023-07-31T08:47:13;98012.50;;;23.33;nan
19108;BME280;9686;48.832;9.126;2023-07-31T08:49:39;98006.91;;;23.52;nan
19108;BME280;9686;48.832;9.126;2023-07-31T08:52:06;98001.06;;;23.75;nan
19108;BME280;9686;48.832;9.126;2023-07-31T08:54:31;98011.59;;;23.48;nan
19108;BME280;9686;48.832;9.126;2023-07-31T08:56:58;98017.97;;;23.60;nan
19108;BME280;9686;48.832;9.126;2023-07-31T08:59:26;98016.34;;;23.57;nan
19108;BME280;9686;48.832;9.126;2023-07-31T09:01:55;98015.84;;;23.51;nan
19108;BME280;9686;48.832;9.126;2023-07-31T09:04:23;98007.13;;;23.49;nan
19108;BME280;9686;48.832;9.126;2023-07-31T09:06:49;97999.78;;;23.52;nan
19108;BME280;9686;48.832;9.126;2023-07-31T09:09:14;97999.09;;;23.34;nan
19108;BME280;9686;48.832;9.126;2023-07-31T09:11:40;98002.81;;;23.32;nan
19108;BME280;9686;48.832;9.126;2023-07-31T09:14:05;98000.91;;;23.20;nan
19108;BME280;9686;48.832;9.126;2023-07-31T09:16:34;98002.50;;;23.08;nan
19108;BME280;9686;48.832;9.126;2023-07-31T09:19:00;98007.50;;;22.98;nan
19108;BME280;9686;48.832;9.126;2023-07-31T09:21:28;98003.22;;;22.96;nan
19108;BME280;9686;48.832;9.126;2023-07-31T09:23:53;98004.69;;;22.86;nan
19108;BME280;9686;48.832;9.126;2023-07-31T09:26:33;97989.94;;;22.96;nan
19108;BME280;9686;48.832;9.126;2023-07-31T09:29:00;97989.94;;;23.10;nan
19108;BME280;9686;48.832;9.126;2023-07-31T09:31:41;97988.84;;;23.28;nan
19108;BME280;9686;48.832;9.126;2023-07-31T09:34:07;97980.09;;;23.41;nan
19108;BME280;9686;48.832;9.126;2023-07-31T09:36:40;97982.00;;;23.24;nan
19108;BME280;9686;48.832;9.126;2023-07-31T09:39:09;97982.09;;;23.23;nan
19108;BME280;9686;48.832;9.126;2023-07-31T09:41:36;97979.25;;;23.54;nan
19108;BME280;9686;48.832;9.126;2023-07-31T09:44:03;97965.69;;;23.45;nan
19108;BME280;9686;48.832;9.126;2023-07-31T09:46:30;97965.50;;;23.62;nan
19108;BME280;9686;48.832;9.126;2023-07-31T09:49:08;97954.28;;;23.57;nan
19108;BME280;9686;48.832;9.126;2023-07-31T09:51:38;97946.66;;;23.65;nan
19108;BME280;9686;48.832;9.126;2023-07-31T09:54:13;97940.94;;;23.85;nan
19108;BME280;9686;48.832;9.126;2023-07-31T09:56:46;97944.81;;;23.94;nan
19108;BME280;9686;48.832;9.126;2023-07-31T09:59:14;97941.50;;;23.90;nan
19108;BME280;9686;48.832;9.126;2023-07-31T10:01:41;97944.31;;;23.75;nan
19108;BME280;9686;48.832;9.126;2023-07-31T10:04:09;97949.81;;;23.72;nan
19108;BME280;9686;48.832;9.126;2023-07-31T10:06:36;97938.56;;;23.81;nan
19108;BME280;9686;48.832;9.126;2023-07-31T10:09:02;97933.78;;;24.00;nan
19108;BME280;9686;48.832;9.126;2023-07-31T10:11:29;97934.75;;;23.99;nan
19108;BME280;9686;48.832;9.126;2023-07-31T10:13:55;97931.97;;;24.01;nan
19108;BME280;9686;48.832;9.126;2023-07-31T10:16:22;97923.72;;;24.18;nan
19108;BME280;9686;48.832;9.126;2023-07-31T10:18:47;97922.38;;;23.98;nan
19108;BME280;9686;48.832;9.126;2023-07-31T10:21:13;97922.53;;;24.09;nan
19108;BME280;9686;48.832;9.126;2023-07-31T10:23:40;97917.06;;;23.98;nan
19108;BME280;9686;48.832;9.126;2023-07-31T10:26:07;97925.19;;;24.09;nan
19108;BME280;9686;48.832;9.126;2023-07-31T10:28:34;97914.00;;;24.04;nan
19108;BME280;9686;48.832;9.126;2023-07-31T10:31:03;97912.97;;;23.92;nan
19108;BME280;9686;48.832;9.126;2023-07-31T10:33:29;97912.41;;;24.14;nan
19108;BME280;9686;48.832;9.126;2023-07-31T10:36:19;97904.16;;;24.58;nan
19108;BME280;9686;48.832;9.126;2023-07-31T10:38:46;97901.94;;;24.65;nan
19108;BME280;9686;48.832;9.126;2023-07-31T10:41:14;97900.97;;;24.53;nan
19108;BME280;9686;48.832;9.126;2023-07-31T10:43:39;97902.41;;;24.32;nan
19108;BME280;9686;48.832;9.126;2023-07-31T10:46:09;97900.53;;;24.47;nan
19108;BME280;9686;48.832;9.126;2023-07-31T10:48:34;97911.72;;;24.25;nan
19108;BME280;9686;48.832;9.126;2023-07-31T10:51:09;97909.00;;;24.12;nan
19108;BME280;9686;48.832;9.126;2023-07-31T10:53:36;97905.16;;;24.04;nan
19108;BME280;9686;48.832;9.126;2023-07-31T10:56:08;97909.28;;;24.22;nan
19108;BME280;9686;48.832;9.126;2023-07-31T10:58:34;97897.50;;;24.78;nan
19108;BME280;9686;48.832;9.126;2023-07-31T11:01:02;97893.63;;;24.95;nan
19108;BME280;9686;48.832;9.126;2023-07-31T11:03:47;97897.91;;;24.98;nan
19108;BME280;9686;48.832;9.126;2023-07-31T11:06:14;97892.56;;;24.85;nan
19108;BME280;9686;48.832;9.126;2023-07-31T11:08:45;97886.34;;;24.99;nan
19108;BME280;9686;48.832;9.126;2023-07-31T11:11:16;97882.88;;;25.22;nan
19108;BME280;9686;48.832;9.126;2023-07-31T11:16:18;97886.50;;;26.90;nan
19108;BME280;9686;48.832;9.126;2023-07-31T11:18:45;97883.34;;;26.96;nan
19108;BME280;9686;48.832;9.126;2023-07-31T11:21:19;97890.09;;;27.13;nan
19108;BME280;9686;48.832;9.126;2023-07-31T11:23:49;97868.53;;;27.03;nan
19108;BME280;9686;48.832;9.126;2023-07-31T11:26:15;97876.13;;;26.74;nan
19108;BME280;9686;48.832;9.126;2023-07-31T11:28:40;97873.63;;;26.84;nan
19108;BME280;9686;48.832;9.126;2023-07-31T11:31:09;97870.22;;;26.82;nan
19108;BME280;9686;48.832;9.126;2023-07-31T11:33:35;57734.34;;;-143.88;100.00
19108;BME280;9686;48.832;9.126;2023-07-31T11:36:01;57734.34;;;-143.88;100.00
19108;BME280;9686;48.832;9.126;2023-07-31T11:38:28;57734.34;;;-143.88;100.00
19108;BME280;9686;48.832;9.126;2023-07-31T11:40:55;57734.34;;;-143.88;100.00
19108;BME280;9686;48.832;9.126;2023-07-31T11:43:21;97856.69;;;26.13;nan
19108;BME280;9686;48.832;9.126;2023-07-31T11:45:48;97871.88;;;25.89;nan
19108;BME280;9686;48.832;9.126;2023-07-31T11:48:22;97864.13;;;25.73;nan
19108;BME280;9686;48.832;9.126;2023-07-31T11:50:52;97857.81;;;25.74;nan
19108;BME280;9686;48.832;9.126;2023-07-31T11:53:31;97859.59;;;26.10;nan
19108;BME280;9686;48.832;9.126;2023-07-31T11:55:59;97853.09;;;26.01;nan
19108;BME280;9686;48.832;9.126;2023-07-31T11:58:26;97845.88;;;26.03;nan
19108;BME280;9686;48.832;9.126;2023-07-31T12:00:52;97837.72;;;26.05;nan
19108;BME280;9686;48.832;9.126;2023-07-31T12:03:18;97842.78;;;25.97;nan
19108;BME280;9686;48.832;9.126;2023-07-31T12:05:43;97841.16;;;25.70;nan
19108;BME280;9686;48.832;9.126;2023-07-31T12:08:10;97845.63;;;25.83;nan
19108;BME280;9686;48.832;9.126;2023-07-31T12:10:37;97835.72;;;25.72;nan
19108;BME280;9686;48.832;9.126;2023-07-31T12:13:08;97828.97;;;25.66;nan
19108;BME280;9686;48.832;9.126;2023-07-31T12:15:41;97825.88;;;25.72;nan
19108;BME280;9686;48.832;9.126;2023-07-31T12:18:08;97829.19;;;25.76;nan
19108;BME280;9686;48.832;9.126;2023-07-31T12:20:34;97825.16;;;25.70;nan
19108;BME280;9686;48.832;9.126;2023-07-31T12:22:59;97829.84;;;25.79;nan
19108;BME280;9686;48.832;9.126;2023-07-31T12:25:29;97828.16;;;26.13;nan
19108;BME280;9686;48.832;9.126;2023-07-31T12:27:55;97821.22;;;26.35;nan
19108;BME280;9686;48.832;9.126;2023-07-31T12:30:34;97814.38;;;26.31;nan
19108;BME280;9686;48.832;9.126;2023-07-31T12:33:13;97799.88;;;26.22;nan
19108;BME280;9686;48.832;9.126;2023-07-31T12:35:47;97803.91;;;25.93;nan
19108;BME280;9686;48.832;9.126;2023-07-31T12:38:13;97799.50;;;25.80;nan
19108;BME280;9686;48.832;9.126;2023-07-31T12:40:40;97790.44;;;25.70;nan
19108;BME280;9686;48.832;9.126;2023-07-31T12:43:06;97803.50;;;25.86;nan
19108;BME280;9686;48.832;9.126;2023-07-31T12:45:32;97795.66;;;25.96;nan
19108;BME280;9686;48.832;9.126;2023-07-31T12:47:58;97801.84;;;25.72;nan
19108;BME280;9686;48.832;9.126;2023-07-31T12:50:24;97802.59;;;25.38;nan
19108;BME280;9686;48.832;9.126;2023-07-31T12:52:49;97800.31;;;25.44;nan
19108;BME280;9686;48.832;9.126;2023-07-31T12:55:14;97785.66;;;25.50;nan
19108;BME280;9686;48.832;9.126;2023-07-31T12:57:40;97784.81;;;25.49;nan
19108;BME280;9686;48.832;9.126;2023-07-31T13:00:09;97776.19;;;25.46;nan
19108;BME280;9686;48.832;9.126;2023-07-31T13:02:34;97776.50;;;25.54;nan
19108;BME280;9686;48.832;9.126;2023-07-31T13:05:00;97768.59;;;25.52;nan
19108;BME280;9686;48.832;9.126;2023-07-31T13:07:26;97767.41;;;25.57;nan
19108;BME280;9686;48.832;9.126;2023-07-31T13:09:51;97765.88;;;25.65;nan
19108;BME280;9686;48.832;9.126;2023-07-31T13:12:16;97767.03;;;25.74;nan
19108;BME280;9686;48.832;9.126;2023-07-31T13:14:42;97767.56;;;25.79;nan
19108;BME280;9686;48.832;9.126;2023-07-31T13:17:07;97766.53;;;25.69;nan
19108;BME280;9686;48.832;9.126;2023-07-31T13:19:32;97759.53;;;25.79;nan
19108;BME280;9686;48.832;9.126;2023-07-31T13:21:58;97764.50;;;25.36;nan
19108;BME280;9686;48.832;9.126;2023-07-31T13:24:23;97754.78;;;25.59;nan
19108;BME280;9686;48.832;9.126;2023-07-31T13:26:48;97750.16;;;25.73;nan
19108;BME280;9686;48.832;9.126;2023-07-31T13:29:13;97749.75;;;25.91;nan
19108;BME280;9686;48.832;9.126;2023-07-31T13:31:39;97742.16;;;26.08;nan
19108;BME280;9686;48.832;9.126;2023-07-31T13:34:04;97756.63;;;26.17;nan